Parq de Bucare Ii, Puerto Rico
Current Conditions -  °F | °C
As of 11:56 AM on Friday 28 Nov 2014 (Local Time) from TJSJ Reporting Station
Scattered Clouds Scattered Clouds  
Wind Chill: 84°   Ceiling: Unl
Heat Index: 90°   Visibility: 10mi
Dew Point: 73°   Wind: 9mph
Humidity: 69%   Direction: 60°ENE
Pressure: 29.96"   Gusts: NA
Location:  18.3866°N, 66.1135°W
Report Text: TJSJ 281556Z 06008KT 10SM SCT030 29/23 A2996 RMK AO2 SLP144 T02890228
Loading
Personal Weather Stations






























Interactive Weather Map New forecast layout! Learn more

10-Day Weather Forecast

Advertisements
Track Severe Weather on mobile